sensor_id;sensor_type;location;lat;lon;timestamp;P1;durP1;ratioP1;P2;durP2;ratioP2
13349;SDS011;6744;53.190;6.576;2022-07-29T00:02:20;2.70;;;1.23;;
13349;SDS011;6744;53.190;6.576;2022-07-29T00:04:46;2.63;;;1.30;;
13349;SDS011;6744;53.190;6.576;2022-07-29T00:07:11;1.83;;;1.20;;
13349;SDS011;6744;53.190;6.576;2022-07-29T00:09:36;1.53;;;1.27;;
13349;SDS011;6744;53.190;6.576;2022-07-29T00:12:02;2.90;;;1.30;;
13349;SDS011;6744;53.190;6.576;2022-07-29T00:14:28;2.93;;;1.30;;
13349;SDS011;6744;53.190;6.576;2022-07-29T00:16:53;2.10;;;1.10;;
13349;SDS011;6744;53.190;6.576;2022-07-29T00:19:20;2.13;;;1.20;;
13349;SDS011;6744;53.190;6.576;2022-07-29T00:21:45;2.37;;;1.20;;
13349;SDS011;6744;53.190;6.576;2022-07-29T00:24:10;2.60;;;1.17;;
13349;SDS011;6744;53.190;6.576;2022-07-29T00:26:36;2.50;;;0.90;;
13349;SDS011;6744;53.190;6.576;2022-07-29T00:29:02;3.40;;;1.20;;
13349;SDS011;6744;53.190;6.576;2022-07-29T00:31:28;2.33;;;0.90;;
13349;SDS011;6744;53.190;6.576;2022-07-29T00:33:54;1.93;;;1.20;;
13349;SDS011;6744;53.190;6.576;2022-07-29T00:36:20;2.73;;;1.00;;
13349;SDS011;6744;53.190;6.576;2022-07-29T00:38:48;1.60;;;1.00;;
13349;SDS011;6744;53.190;6.576;2022-07-29T00:41:14;2.70;;;1.00;;
13349;SDS011;6744;53.190;6.576;2022-07-29T00:43:40;2.83;;;1.10;;
13349;SDS011;6744;53.190;6.576;2022-07-29T00:46:06;3.80;;;1.13;;
13349;SDS011;6744;53.190;6.576;2022-07-29T00:48:31;1.90;;;0.87;;
13349;SDS011;6744;53.190;6.576;2022-07-29T00:50:57;2.13;;;1.03;;
13349;SDS011;6744;53.190;6.576;2022-07-29T00:53:23;2.10;;;0.90;;
13349;SDS011;6744;53.190;6.576;2022-07-29T00:55:49;2.10;;;1.07;;
13349;SDS011;6744;53.190;6.576;2022-07-29T00:58:15;3.87;;;1.20;;
13349;SDS011;6744;53.190;6.576;2022-07-29T01:00:40;1.77;;;1.10;;
13349;SDS011;6744;53.190;6.576;2022-07-29T01:03:06;3.47;;;1.30;;
13349;SDS011;6744;53.190;6.576;2022-07-29T01:05:32;2.30;;;1.00;;
13349;SDS011;6744;53.190;6.576;2022-07-29T01:07:58;3.50;;;1.17;;
13349;SDS011;6744;53.190;6.576;2022-07-29T01:10:24;1.60;;;1.00;;
13349;SDS011;6744;53.190;6.576;2022-07-29T01:12:50;2.17;;;1.00;;
13349;SDS011;6744;53.190;6.576;2022-07-29T01:15:16;2.20;;;1.23;;
13349;SDS011;6744;53.190;6.576;2022-07-29T01:17:47;2.67;;;1.30;;
13349;SDS011;6744;53.190;6.576;2022-07-29T01:20:30;1.77;;;1.20;;
13349;SDS011;6744;53.190;6.576;2022-07-29T01:33:58;2.73;;;1.13;;
13349;SDS011;6744;53.190;6.576;2022-07-29T01:36:37;2.60;;;1.20;;
13349;SDS011;6744;53.190;6.576;2022-07-29T01:39:22;1.67;;;1.10;;
13349;SDS011;6744;53.190;6.576;2022-07-29T01:42:10;3.20;;;1.50;;
13349;SDS011;6744;53.190;6.576;2022-07-29T01:44:57;2.80;;;1.20;;
13349;SDS011;6744;53.190;6.576;2022-07-29T01:47:25;1.80;;;1.10;;
13349;SDS011;6744;53.190;6.576;2022-07-29T01:49:54;1.90;;;1.30;;
13349;SDS011;6744;53.190;6.576;2022-07-29T01:52:31;2.17;;;1.10;;
13349;SDS011;6744;53.190;6.576;2022-07-29T01:55:01;2.17;;;1.10;;
13349;SDS011;6744;53.190;6.576;2022-07-29T01:57:30;2.27;;;1.13;;
13349;SDS011;6744;53.190;6.576;2022-07-29T01:59:57;3.17;;;1.13;;
13349;SDS011;6744;53.190;6.576;2022-07-29T02:02:23;3.87;;;1.30;;
13349;SDS011;6744;53.190;6.576;2022-07-29T02:04:49;1.90;;;1.00;;
13349;SDS011;6744;53.190;6.576;2022-07-29T02:07:17;2.47;;;1.23;;
13349;SDS011;6744;53.190;6.576;2022-07-29T02:09:45;2.60;;;1.00;;
13349;SDS011;6744;53.190;6.576;2022-07-29T02:12:11;3.90;;;1.30;;
13349;SDS011;6744;53.190;6.576;2022-07-29T02:14:38;2.17;;;1.00;;
13349;SDS011;6744;53.190;6.576;2022-07-29T02:17:06;2.20;;;1.17;;
13349;SDS011;6744;53.190;6.576;2022-07-29T02:19:32;2.33;;;1.10;;
13349;SDS011;6744;53.190;6.576;2022-07-29T02:21:58;2.87;;;1.40;;
13349;SDS011;6744;53.190;6.576;2022-07-29T02:24:25;3.03;;;1.20;;
13349;SDS011;6744;53.190;6.576;2022-07-29T02:26:53;1.50;;;1.00;;
13349;SDS011;6744;53.190;6.576;2022-07-29T02:29:23;2.17;;;1.10;;
13349;SDS011;6744;53.190;6.576;2022-07-29T02:31:50;1.97;;;1.30;;
13349;SDS011;6744;53.190;6.576;2022-07-29T02:34:16;3.57;;;1.30;;
13349;SDS011;6744;53.190;6.576;2022-07-29T02:36:42;3.50;;;1.23;;
13349;SDS011;6744;53.190;6.576;2022-07-29T02:39:09;1.73;;;1.20;;
13349;SDS011;6744;53.190;6.576;2022-07-29T02:41:46;2.10;;;1.10;;
13349;SDS011;6744;53.190;6.576;2022-07-29T02:44:17;3.23;;;1.23;;
13349;SDS011;6744;53.190;6.576;2022-07-29T02:46:53;1.93;;;1.00;;
13349;SDS011;6744;53.190;6.576;2022-07-29T02:49:54;3.87;;;1.30;;
13349;SDS011;6744;53.190;6.576;2022-07-29T02:52:24;1.93;;;1.30;;
13349;SDS011;6744;53.190;6.576;2022-07-29T02:54:56;2.90;;;1.10;;
13349;SDS011;6744;53.190;6.576;2022-07-29T02:57:28;2.27;;;1.13;;
13349;SDS011;6744;53.190;6.576;2022-07-29T02:59:57;2.90;;;1.17;;
13349;SDS011;6744;53.190;6.576;2022-07-29T03:02:25;2.30;;;1.30;;
13349;SDS011;6744;53.190;6.576;2022-07-29T03:04:50;3.67;;;1.20;;
13349;SDS011;6744;53.190;6.576;2022-07-29T03:07:17;2.07;;;1.23;;
13349;SDS011;6744;53.190;6.576;2022-07-29T03:09:43;1.33;;;1.07;;
13349;SDS011;6744;53.190;6.576;2022-07-29T03:12:09;1.47;;;1.13;;
13349;SDS011;6744;53.190;6.576;2022-07-29T03:14:35;2.77;;;1.30;;
13349;SDS011;6744;53.190;6.576;2022-07-29T03:17:01;3.57;;;1.30;;
13349;SDS011;6744;53.190;6.576;2022-07-29T03:19:27;3.30;;;1.30;;
13349;SDS011;6744;53.190;6.576;2022-07-29T03:21:55;2.60;;;1.20;;
13349;SDS011;6744;53.190;6.576;2022-07-29T03:24:31;3.43;;;1.23;;
13349;SDS011;6744;53.190;6.576;2022-07-29T03:26:58;3.97;;;1.20;;
13349;SDS011;6744;53.190;6.576;2022-07-29T03:29:24;2.63;;;1.20;;
13349;SDS011;6744;53.190;6.576;2022-07-29T03:31:49;1.93;;;1.10;;
13349;SDS011;6744;53.190;6.576;2022-07-29T03:34:15;3.60;;;1.10;;
13349;SDS011;6744;53.190;6.576;2022-07-29T03:36:40;3.07;;;1.20;;
13349;SDS011;6744;53.190;6.576;2022-07-29T03:39:05;3.10;;;1.33;;
13349;SDS011;6744;53.190;6.576;2022-07-29T03:41:31;1.53;;;1.00;;
13349;SDS011;6744;53.190;6.576;2022-07-29T03:43:57;2.70;;;1.20;;
13349;SDS011;6744;53.190;6.576;2022-07-29T03:46:23;2.40;;;1.17;;
13349;SDS011;6744;53.190;6.576;2022-07-29T03:48:50;3.20;;;1.20;;
13349;SDS011;6744;53.190;6.576;2022-07-29T03:51:18;2.60;;;1.20;;
13349;SDS011;6744;53.190;6.576;2022-07-29T03:53:43;3.40;;;1.17;;
13349;SDS011;6744;53.190;6.576;2022-07-29T03:56:09;1.20;;;1.00;;
13349;SDS011;6744;53.190;6.576;2022-07-29T03:58:35;3.07;;;1.00;;
13349;SDS011;6744;53.190;6.576;2022-07-29T04:01:00;3.57;;;1.20;;
13349;SDS011;6744;53.190;6.576;2022-07-29T04:03:25;2.77;;;1.33;;
13349;SDS011;6744;53.190;6.576;2022-07-29T04:06:01;3.00;;;1.30;;
13349;SDS011;6744;53.190;6.576;2022-07-29T04:08:27;4.03;;;1.40;;
13349;SDS011;6744;53.190;6.576;2022-07-29T04:10:53;3.30;;;1.30;;
13349;SDS011;6744;53.190;6.576;2022-07-29T04:13:18;2.50;;;1.30;;
13349;SDS011;6744;53.190;6.576;2022-07-29T04:15:44;2.27;;;1.23;;
13349;SDS011;6744;53.190;6.576;2022-07-29T04:18:10;3.20;;;1.20;;
13349;SDS011;6744;53.190;6.576;2022-07-29T04:20:35;2.37;;;1.30;;
13349;SDS011;6744;53.190;6.576;2022-07-29T04:23:00;3.97;;;1.30;;
13349;SDS011;6744;53.190;6.576;2022-07-29T04:25:26;2.93;;;1.20;;
13349;SDS011;6744;53.190;6.576;2022-07-29T04:27:51;3.40;;;1.30;;
13349;SDS011;6744;53.190;6.576;2022-07-29T04:30:25;1.60;;;1.30;;
13349;SDS011;6744;53.190;6.576;2022-07-29T04:32:51;2.90;;;1.30;;
13349;SDS011;6744;53.190;6.576;2022-07-29T04:35:16;3.37;;;1.40;;
13349;SDS011;6744;53.190;6.576;2022-07-29T04:37:42;3.17;;;1.13;;
13349;SDS011;6744;53.190;6.576;2022-07-29T04:40:08;3.17;;;1.30;;
13349;SDS011;6744;53.190;6.576;2022-07-29T04:42:33;2.93;;;1.57;;
13349;SDS011;6744;53.190;6.576;2022-07-29T04:44:59;2.87;;;1.30;;
13349;SDS011;6744;53.190;6.576;2022-07-29T04:47:24;2.80;;;1.20;;
13349;SDS011;6744;53.190;6.576;2022-07-29T04:49:49;4.90;;;1.50;;
13349;SDS011;6744;53.190;6.576;2022-07-29T04:52:15;3.87;;;1.60;;
13349;SDS011;6744;53.190;6.576;2022-07-29T04:54:40;1.93;;;1.10;;
13349;SDS011;6744;53.190;6.576;2022-07-29T04:57:05;2.03;;;1.20;;
13349;SDS011;6744;53.190;6.576;2022-07-29T04:59:30;3.27;;;1.10;;
13349;SDS011;6744;53.190;6.576;2022-07-29T05:01:56;3.60;;;1.17;;
13349;SDS011;6744;53.190;6.576;2022-07-29T05:04:22;3.57;;;1.30;;
13349;SDS011;6744;53.190;6.576;2022-07-29T05:06:47;2.77;;;1.50;;
13349;SDS011;6744;53.190;6.576;2022-07-29T05:09:13;2.07;;;1.20;;
13349;SDS011;6744;53.190;6.576;2022-07-29T05:11:38;2.00;;;1.40;;
13349;SDS011;6744;53.190;6.576;2022-07-29T05:14:04;3.07;;;1.20;;
13349;SDS011;6744;53.190;6.576;2022-07-29T05:16:29;3.20;;;1.50;;
13349;SDS011;6744;53.190;6.576;2022-07-29T05:18:55;3.23;;;1.20;;
13349;SDS011;6744;53.190;6.576;2022-07-29T05:21:20;3.63;;;1.60;;
13349;SDS011;6744;53.190;6.576;2022-07-29T05:23:45;2.57;;;1.23;;
13349;SDS011;6744;53.190;6.576;2022-07-29T05:26:11;3.53;;;1.40;;
13349;SDS011;6744;53.190;6.576;2022-07-29T05:28:36;3.30;;;1.20;;
13349;SDS011;6744;53.190;6.576;2022-07-29T05:31:02;3.60;;;1.30;;
13349;SDS011;6744;53.190;6.576;2022-07-29T05:33:28;3.57;;;1.30;;
13349;SDS011;6744;53.190;6.576;2022-07-29T05:35:53;3.63;;;1.40;;
13349;SDS011;6744;53.190;6.576;2022-07-29T05:38:18;3.47;;;1.50;;
13349;SDS011;6744;53.190;6.576;2022-07-29T05:40:44;3.90;;;1.40;;
13349;SDS011;6744;53.190;6.576;2022-07-29T05:43:09;2.30;;;1.50;;
13349;SDS011;6744;53.190;6.576;2022-07-29T05:45:34;2.97;;;1.50;;
13349;SDS011;6744;53.190;6.576;2022-07-29T05:47:59;3.03;;;1.40;;
13349;SDS011;6744;53.190;6.576;2022-07-29T05:50:25;2.87;;;1.23;;
13349;SDS011;6744;53.190;6.576;2022-07-29T05:52:50;3.17;;;1.50;;
13349;SDS011;6744;53.190;6.576;2022-07-29T05:55:15;2.07;;;1.40;;
13349;SDS011;6744;53.190;6.576;2022-07-29T05:57:41;3.53;;;1.40;;
13349;SDS011;6744;53.190;6.576;2022-07-29T06:00:08;2.03;;;1.27;;
13349;SDS011;6744;53.190;6.576;2022-07-29T06:02:34;2.73;;;1.27;;
13349;SDS011;6744;53.190;6.576;2022-07-29T06:04:59;2.47;;;1.40;;
13349;SDS011;6744;53.190;6.576;2022-07-29T06:07:25;2.87;;;1.30;;
13349;SDS011;6744;53.190;6.576;2022-07-29T06:09:50;3.20;;;1.33;;
13349;SDS011;6744;53.190;6.576;2022-07-29T06:12:15;2.47;;;1.47;;
13349;SDS011;6744;53.190;6.576;2022-07-29T06:14:41;2.83;;;1.37;;
13349;SDS011;6744;53.190;6.576;2022-07-29T06:17:06;3.57;;;1.43;;
13349;SDS011;6744;53.190;6.576;2022-07-29T06:19:33;3.03;;;1.80;;
13349;SDS011;6744;53.190;6.576;2022-07-29T06:22:00;2.80;;;1.43;;
13349;SDS011;6744;53.190;6.576;2022-07-29T06:24:25;2.57;;;1.30;;
13349;SDS011;6744;53.190;6.576;2022-07-29T06:26:50;2.00;;;1.23;;
13349;SDS011;6744;53.190;6.576;2022-07-29T06:29:16;1.87;;;1.27;;
13349;SDS011;6744;53.190;6.576;2022-07-29T06:31:41;3.30;;;1.67;;
13349;SDS011;6744;53.190;6.576;2022-07-29T06:34:07;3.43;;;1.40;;
13349;SDS011;6744;53.190;6.576;2022-07-29T06:36:35;3.70;;;1.50;;
13349;SDS011;6744;53.190;6.576;2022-07-29T06:39:03;2.67;;;1.33;;
13349;SDS011;6744;53.190;6.576;2022-07-29T06:41:30;2.50;;;1.40;;
13349;SDS011;6744;53.190;6.576;2022-07-29T06:43:55;2.40;;;1.20;;
13349;SDS011;6744;53.190;6.576;2022-07-29T06:46:21;2.50;;;1.40;;
13349;SDS011;6744;53.190;6.576;2022-07-29T06:48:47;5.17;;;1.70;;
13349;SDS011;6744;53.190;6.576;2022-07-29T06:51:12;4.20;;;1.57;;
13349;SDS011;6744;53.190;6.576;2022-07-29T06:53:38;1.77;;;1.23;;
13349;SDS011;6744;53.190;6.576;2022-07-29T06:56:05;2.73;;;1.50;;
13349;SDS011;6744;53.190;6.576;2022-07-29T06:58:33;1.73;;;1.30;;
13349;SDS011;6744;53.190;6.576;2022-07-29T07:00:58;1.67;;;1.40;;
13349;SDS011;6744;53.190;6.576;2022-07-29T07:03:26;2.57;;;1.40;;
13349;SDS011;6744;53.190;6.576;2022-07-29T07:05:52;3.17;;;1.50;;
13349;SDS011;6744;53.190;6.576;2022-07-29T07:08:18;3.73;;;1.70;;
13349;SDS011;6744;53.190;6.576;2022-07-29T07:10:44;2.57;;;1.50;;
13349;SDS011;6744;53.190;6.576;2022-07-29T07:13:09;3.47;;;1.80;;
13349;SDS011;6744;53.190;6.576;2022-07-29T07:15:35;2.13;;;1.40;;
13349;SDS011;6744;53.190;6.576;2022-07-29T07:18:01;3.70;;;1.80;;
13349;SDS011;6744;53.190;6.576;2022-07-29T07:20:26;1.80;;;1.30;;
13349;SDS011;6744;53.190;6.576;2022-07-29T07:22:52;4.13;;;1.77;;
13349;SDS011;6744;53.190;6.576;2022-07-29T07:25:17;3.13;;;1.33;;
13349;SDS011;6744;53.190;6.576;2022-07-29T07:27:43;1.40;;;1.27;;
13349;SDS011;6744;53.190;6.576;2022-07-29T07:30:09;4.17;;;1.33;;
13349;SDS011;6744;53.190;6.576;2022-07-29T07:32:35;2.90;;;1.47;;
13349;SDS011;6744;53.190;6.576;2022-07-29T07:35:02;3.57;;;1.63;;
13349;SDS011;6744;53.190;6.576;2022-07-29T07:37:28;3.70;;;1.60;;
13349;SDS011;6744;53.190;6.576;2022-07-29T07:39:53;2.90;;;1.30;;
13349;SDS011;6744;53.190;6.576;2022-07-29T07:42:19;2.70;;;1.50;;
13349;SDS011;6744;53.190;6.576;2022-07-29T07:44:44;3.90;;;1.50;;
13349;SDS011;6744;53.190;6.576;2022-07-29T07:47:13;2.50;;;1.50;;
13349;SDS011;6744;53.190;6.576;2022-07-29T07:49:40;3.87;;;1.60;;
13349;SDS011;6744;53.190;6.576;2022-07-29T07:52:05;2.43;;;1.60;;
13349;SDS011;6744;53.190;6.576;2022-07-29T07:54:31;3.10;;;1.60;;
13349;SDS011;6744;53.190;6.576;2022-07-29T07:56:56;3.90;;;1.70;;
13349;SDS011;6744;53.190;6.576;2022-07-29T07:59:22;4.90;;;1.70;;
13349;SDS011;6744;53.190;6.576;2022-07-29T08:01:47;2.97;;;1.70;;
13349;SDS011;6744;53.190;6.576;2022-07-29T08:04:12;1.67;;;1.40;;
13349;SDS011;6744;53.190;6.576;2022-07-29T08:06:38;3.90;;;1.80;;
13349;SDS011;6744;53.190;6.576;2022-07-29T08:09:04;3.83;;;1.67;;
13349;SDS011;6744;53.190;6.576;2022-07-29T08:11:29;3.10;;;1.80;;
13349;SDS011;6744;53.190;6.576;2022-07-29T08:13:55;4.20;;;1.90;;
13349;SDS011;6744;53.190;6.576;2022-07-29T08:16:21;2.30;;;1.60;;
13349;SDS011;6744;53.190;6.576;2022-07-29T08:18:46;2.77;;;1.53;;
13349;SDS011;6744;53.190;6.576;2022-07-29T08:21:13;4.17;;;1.60;;
13349;SDS011;6744;53.190;6.576;2022-07-29T08:23:39;2.20;;;1.43;;
13349;SDS011;6744;53.190;6.576;2022-07-29T08:26:10;2.20;;;1.60;;
13349;SDS011;6744;53.190;6.576;2022-07-29T08:28:45;2.43;;;1.47;;
13349;SDS011;6744;53.190;6.576;2022-07-29T08:31:13;2.60;;;1.63;;
13349;SDS011;6744;53.190;6.576;2022-07-29T08:33:39;2.37;;;1.57;;
13349;SDS011;6744;53.190;6.576;2022-07-29T08:36:05;3.17;;;1.50;;
13349;SDS011;6744;53.190;6.576;2022-07-29T08:38:31;4.33;;;2.00;;
13349;SDS011;6744;53.190;6.576;2022-07-29T08:40:56;3.60;;;1.90;;
13349;SDS011;6744;53.190;6.576;2022-07-29T08:43:22;3.97;;;1.50;;
13349;SDS011;6744;53.190;6.576;2022-07-29T08:45:49;3.50;;;1.60;;
13349;SDS011;6744;53.190;6.576;2022-07-29T08:48:17;2.70;;;1.63;;
13349;SDS011;6744;53.190;6.576;2022-07-29T08:50:44;2.97;;;1.60;;
13349;SDS011;6744;53.190;6.576;2022-07-29T08:53:10;3.70;;;1.90;;
13349;SDS011;6744;53.190;6.576;2022-07-29T08:55:47;3.63;;;1.50;;
13349;SDS011;6744;53.190;6.576;2022-07-29T08:58:14;3.20;;;1.80;;
13349;SDS011;6744;53.190;6.576;2022-07-29T09:00:44;2.57;;;1.70;;
13349;SDS011;6744;53.190;6.576;2022-07-29T09:03:15;3.50;;;1.80;;
13349;SDS011;6744;53.190;6.576;2022-07-29T09:05:42;3.60;;;1.90;;
13349;SDS011;6744;53.190;6.576;2022-07-29T09:08:08;2.43;;;1.57;;
13349;SDS011;6744;53.190;6.576;2022-07-29T09:10:35;3.37;;;1.60;;
13349;SDS011;6744;53.190;6.576;2022-07-29T09:13:00;3.30;;;1.90;;
13349;SDS011;6744;53.190;6.576;2022-07-29T09:15:25;2.77;;;1.67;;
13349;SDS011;6744;53.190;6.576;2022-07-29T09:17:51;2.83;;;1.80;;
13349;SDS011;6744;53.190;6.576;2022-07-29T09:20:17;5.40;;;1.83;;
13349;SDS011;6744;53.190;6.576;2022-07-29T09:22:44;2.70;;;1.70;;
13349;SDS011;6744;53.190;6.576;2022-07-29T09:25:14;2.37;;;1.80;;
13349;SDS011;6744;53.190;6.576;2022-07-29T09:27:39;2.93;;;1.77;;
13349;SDS011;6744;53.190;6.576;2022-07-29T09:30:06;3.17;;;1.90;;
13349;SDS011;6744;53.190;6.576;2022-07-29T09:32:53;3.30;;;1.80;;
13349;SDS011;6744;53.190;6.576;2022-07-29T09:35:23;3.60;;;2.17;;
13349;SDS011;6744;53.190;6.576;2022-07-29T09:37:49;3.77;;;1.80;;
13349;SDS011;6744;53.190;6.576;2022-07-29T09:40:20;3.93;;;1.70;;
13349;SDS011;6744;53.190;6.576;2022-07-29T09:42:49;3.90;;;1.90;;
13349;SDS011;6744;53.190;6.576;2022-07-29T09:45:26;2.70;;;1.80;;
13349;SDS011;6744;53.190;6.576;2022-07-29T09:47:51;2.80;;;1.80;;
13349;SDS011;6744;53.190;6.576;2022-07-29T09:50:17;3.07;;;1.70;;
13349;SDS011;6744;53.190;6.576;2022-07-29T09:52:49;3.37;;;1.60;;
13349;SDS011;6744;53.190;6.576;2022-07-29T09:55:16;3.17;;;1.40;;
13349;SDS011;6744;53.190;6.576;2022-07-29T09:57:42;3.67;;;1.93;;
13349;SDS011;6744;53.190;6.576;2022-07-29T10:00:09;3.07;;;1.90;;
13349;SDS011;6744;53.190;6.576;2022-07-29T10:02:37;3.87;;;1.67;;
13349;SDS011;6744;53.190;6.576;2022-07-29T10:05:04;2.80;;;1.80;;
13349;SDS011;6744;53.190;6.576;2022-07-29T10:07:53;2.30;;;1.80;;
13349;SDS011;6744;53.190;6.576;2022-07-29T10:10:26;4.27;;;2.10;;
13349;SDS011;6744;53.190;6.576;2022-07-29T10:12:57;3.50;;;2.00;;
13349;SDS011;6744;53.190;6.576;2022-07-29T10:15:24;2.10;;;1.50;;
13349;SDS011;6744;53.190;6.576;2022-07-29T10:17:51;3.70;;;2.00;;
13349;SDS011;6744;53.190;6.576;2022-07-29T10:20:17;4.87;;;2.10;;
13349;SDS011;6744;53.190;6.576;2022-07-29T10:22:43;3.57;;;2.03;;
13349;SDS011;6744;53.190;6.576;2022-07-29T10:25:09;3.47;;;1.90;;
13349;SDS011;6744;53.190;6.576;2022-07-29T10:27:35;4.67;;;2.40;;
13349;SDS011;6744;53.190;6.576;2022-07-29T10:30:02;3.90;;;2.30;;
13349;SDS011;6744;53.190;6.576;2022-07-29T10:32:32;4.07;;;1.90;;
13349;SDS011;6744;53.190;6.576;2022-07-29T10:35:18;3.57;;;1.80;;
13349;SDS011;6744;53.190;6.576;2022-07-29T10:40:36;3.80;;;2.07;;
13349;SDS011;6744;53.190;6.576;2022-07-29T10:43:43;3.60;;;2.17;;
13349;SDS011;6744;53.190;6.576;2022-07-29T10:46:10;4.07;;;2.10;;
13349;SDS011;6744;53.190;6.576;2022-07-29T10:54:18;3.87;;;2.00;;
13349;SDS011;6744;53.190;6.576;2022-07-29T10:56:44;3.50;;;2.10;;
13349;SDS011;6744;53.190;6.576;2022-07-29T11:01:44;6.53;;;2.20;;
13349;SDS011;6744;53.190;6.576;2022-07-29T11:04:10;2.73;;;1.90;;
13349;SDS011;6744;53.190;6.576;2022-07-29T11:09:23;5.77;;;2.67;;
13349;SDS011;6744;53.190;6.576;2022-07-29T11:11:49;4.23;;;2.17;;
13349;SDS011;6744;53.190;6.576;2022-07-29T11:14:14;2.67;;;1.87;;
13349;SDS011;6744;53.190;6.576;2022-07-29T11:17:13;3.97;;;2.20;;
13349;SDS011;6744;53.190;6.576;2022-07-29T11:19:33;3.87;;;2.13;;
13349;SDS011;6744;53.190;6.576;2022-07-29T11:21:58;3.20;;;2.23;;
13349;SDS011;6744;53.190;6.576;2022-07-29T11:24:30;4.73;;;2.40;;
13349;SDS011;6744;53.190;6.576;2022-07-29T11:27:16;4.17;;;2.30;;
13349;SDS011;6744;53.190;6.576;2022-07-29T11:29:50;6.03;;;2.30;;
13349;SDS011;6744;53.190;6.576;2022-07-29T11:32:20;3.60;;;2.30;;
13349;SDS011;6744;53.190;6.576;2022-07-29T11:34:47;3.70;;;2.37;;
13349;SDS011;6744;53.190;6.576;2022-07-29T11:39:46;4.60;;;2.40;;
13349;SDS011;6744;53.190;6.576;2022-07-29T11:47:30;3.80;;;2.20;;
13349;SDS011;6744;53.190;6.576;2022-07-29T11:49:56;6.40;;;2.73;;
13349;SDS011;6744;53.190;6.576;2022-07-29T11:52:22;5.23;;;2.93;;
13349;SDS011;6744;53.190;6.576;2022-07-29T11:54:48;3.17;;;2.00;;
13349;SDS011;6744;53.190;6.576;2022-07-29T11:57:18;5.87;;;2.53;;
13349;SDS011;6744;53.190;6.576;2022-07-29T11:59:45;3.87;;;2.60;;
13349;SDS011;6744;53.190;6.576;2022-07-29T12:02:11;5.90;;;2.50;;
13349;SDS011;6744;53.190;6.576;2022-07-29T12:04:53;3.43;;;2.40;;
13349;SDS011;6744;53.190;6.576;2022-07-29T12:07:33;5.40;;;2.40;;
13349;SDS011;6744;53.190;6.576;2022-07-29T12:09:59;3.50;;;2.37;;
13349;SDS011;6744;53.190;6.576;2022-07-29T12:12:25;2.60;;;2.27;;
13349;SDS011;6744;53.190;6.576;2022-07-29T12:14:50;5.77;;;2.57;;
13349;SDS011;6744;53.190;6.576;2022-07-29T12:17:27;4.67;;;2.20;;
13349;SDS011;6744;53.190;6.576;2022-07-29T12:19:54;4.57;;;2.40;;
13349;SDS011;6744;53.190;6.576;2022-07-29T12:22:27;4.47;;;2.30;;
13349;SDS011;6744;53.190;6.576;2022-07-29T12:24:53;3.40;;;2.10;;
13349;SDS011;6744;53.190;6.576;2022-07-29T12:27:19;3.87;;;1.90;;
13349;SDS011;6744;53.190;6.576;2022-07-29T12:29:54;4.93;;;2.03;;
13349;SDS011;6744;53.190;6.576;2022-07-29T12:32:46;2.80;;;2.10;;
13349;SDS011;6744;53.190;6.576;2022-07-29T12:35:16;3.77;;;1.90;;
13349;SDS011;6744;53.190;6.576;2022-07-29T12:37:44;3.13;;;2.07;;
13349;SDS011;6744;53.190;6.576;2022-07-29T12:40:13;3.23;;;2.07;;
13349;SDS011;6744;53.190;6.576;2022-07-29T12:42:41;3.83;;;1.80;;
13349;SDS011;6744;53.190;6.576;2022-07-29T12:45:07;4.17;;;1.83;;
13349;SDS011;6744;53.190;6.576;2022-07-29T12:47:33;3.67;;;1.90;;
13349;SDS011;6744;53.190;6.576;2022-07-29T12:50:14;5.37;;;1.90;;
13349;SDS011;6744;53.190;6.576;2022-07-29T12:52:42;3.83;;;2.20;;
13349;SDS011;6744;53.190;6.576;2022-07-29T12:55:08;3.47;;;2.00;;
13349;SDS011;6744;53.190;6.576;2022-07-29T12:57:44;3.13;;;1.80;;
13349;SDS011;6744;53.190;6.576;2022-07-29T13:00:13;3.87;;;1.70;;
13349;SDS011;6744;53.190;6.576;2022-07-29T13:02:39;3.23;;;1.90;;
13349;SDS011;6744;53.190;6.576;2022-07-29T13:05:06;4.10;;;2.07;;
13349;SDS011;6744;53.190;6.576;2022-07-29T13:07:33;2.37;;;1.80;;
13349;SDS011;6744;53.190;6.576;2022-07-29T13:13:04;3.97;;;2.20;;
13349;SDS011;6744;53.190;6.576;2022-07-29T13:15:31;5.70;;;2.53;;
13349;SDS011;6744;53.190;6.576;2022-07-29T13:17:57;3.37;;;2.10;;
13349;SDS011;6744;53.190;6.576;2022-07-29T13:20:23;5.57;;;2.27;;
13349;SDS011;6744;53.190;6.576;2022-07-29T13:22:50;6.40;;;2.80;;
13349;SDS011;6744;53.190;6.576;2022-07-29T13:25:23;4.23;;;2.20;;
13349;SDS011;6744;53.190;6.576;2022-07-29T13:27:49;4.83;;;2.20;;
13349;SDS011;6744;53.190;6.576;2022-07-29T13:30:15;4.07;;;2.10;;
13349;SDS011;6744;53.190;6.576;2022-07-29T13:32:40;2.90;;;1.83;;
13349;SDS011;6744;53.190;6.576;2022-07-29T13:35:06;4.30;;;2.33;;
13349;SDS011;6744;53.190;6.576;2022-07-29T13:37:33;4.03;;;2.50;;
13349;SDS011;6744;53.190;6.576;2022-07-29T13:40:03;7.63;;;2.50;;
13349;SDS011;6744;53.190;6.576;2022-07-29T13:42:29;4.60;;;2.03;;
13349;SDS011;6744;53.190;6.576;2022-07-29T13:44:55;4.23;;;2.00;;
13349;SDS011;6744;53.190;6.576;2022-07-29T13:47:21;3.83;;;2.00;;
13349;SDS011;6744;53.190;6.576;2022-07-29T13:49:47;3.27;;;2.10;;
13349;SDS011;6744;53.190;6.576;2022-07-29T13:52:12;4.23;;;2.07;;
13349;SDS011;6744;53.190;6.576;2022-07-29T13:54:38;3.50;;;2.13;;
13349;SDS011;6744;53.190;6.576;2022-07-29T13:57:04;2.40;;;1.60;;
13349;SDS011;6744;53.190;6.576;2022-07-29T13:59:29;3.43;;;1.80;;
13349;SDS011;6744;53.190;6.576;2022-07-29T14:01:55;3.90;;;1.80;;
13349;SDS011;6744;53.190;6.576;2022-07-29T14:04:20;2.70;;;1.63;;
13349;SDS011;6744;53.190;6.576;2022-07-29T14:06:46;3.73;;;1.63;;
13349;SDS011;6744;53.190;6.576;2022-07-29T14:09:12;7.93;;;2.10;;
13349;SDS011;6744;53.190;6.576;2022-07-29T14:11:37;5.17;;;1.80;;
13349;SDS011;6744;53.190;6.576;2022-07-29T14:14:03;4.23;;;2.00;;
13349;SDS011;6744;53.190;6.576;2022-07-29T14:16:29;3.73;;;1.50;;
13349;SDS011;6744;53.190;6.576;2022-07-29T14:18:54;3.73;;;1.67;;
13349;SDS011;6744;53.190;6.576;2022-07-29T14:21:19;3.57;;;1.80;;
13349;SDS011;6744;53.190;6.576;2022-07-29T14:23:44;4.63;;;1.63;;
13349;SDS011;6744;53.190;6.576;2022-07-29T14:26:10;3.77;;;1.60;;
13349;SDS011;6744;53.190;6.576;2022-07-29T14:28:35;2.10;;;1.50;;
13349;SDS011;6744;53.190;6.576;2022-07-29T14:31:00;3.83;;;1.83;;
13349;SDS011;6744;53.190;6.576;2022-07-29T14:33:26;4.20;;;1.70;;
13349;SDS011;6744;53.190;6.576;2022-07-29T14:35:51;5.27;;;1.90;;
13349;SDS011;6744;53.190;6.576;2022-07-29T14:38:16;4.93;;;1.87;;
13349;SDS011;6744;53.190;6.576;2022-07-29T14:40:42;3.57;;;1.80;;
13349;SDS011;6744;53.190;6.576;2022-07-29T14:43:07;4.10;;;1.63;;
13349;SDS011;6744;53.190;6.576;2022-07-29T14:45:32;2.67;;;1.50;;
13349;SDS011;6744;53.190;6.576;2022-07-29T14:47:58;2.83;;;1.60;;
13349;SDS011;6744;53.190;6.576;2022-07-29T14:50:24;3.97;;;1.60;;
13349;SDS011;6744;53.190;6.576;2022-07-29T14:52:51;3.80;;;1.70;;
13349;SDS011;6744;53.190;6.576;2022-07-29T14:55:16;3.70;;;1.80;;
13349;SDS011;6744;53.190;6.576;2022-07-29T14:57:42;4.43;;;2.03;;
13349;SDS011;6744;53.190;6.576;2022-07-29T15:00:07;2.57;;;1.60;;
13349;SDS011;6744;53.190;6.576;2022-07-29T15:02:34;4.93;;;1.70;;
13349;SDS011;6744;53.190;6.576;2022-07-29T15:04:59;4.37;;;1.77;;
13349;SDS011;6744;53.190;6.576;2022-07-29T15:07:25;2.43;;;1.63;;
13349;SDS011;6744;53.190;6.576;2022-07-29T15:09:50;3.63;;;1.83;;
13349;SDS011;6744;53.190;6.576;2022-07-29T15:12:16;3.73;;;1.70;;
13349;SDS011;6744;53.190;6.576;2022-07-29T15:14:41;4.23;;;1.70;;
13349;SDS011;6744;53.190;6.576;2022-07-29T15:17:07;3.03;;;1.33;;
13349;SDS011;6744;53.190;6.576;2022-07-29T15:19:32;3.57;;;1.70;;
13349;SDS011;6744;53.190;6.576;2022-07-29T15:21:57;3.60;;;1.73;;
13349;SDS011;6744;53.190;6.576;2022-07-29T15:24:23;4.23;;;1.60;;
13349;SDS011;6744;53.190;6.576;2022-07-29T15:26:48;3.17;;;1.70;;
13349;SDS011;6744;53.190;6.576;2022-07-29T15:29:14;1.30;;;1.20;;
13349;SDS011;6744;53.190;6.576;2022-07-29T15:31:39;3.97;;;1.67;;
13349;SDS011;6744;53.190;6.576;2022-07-29T15:34:05;3.23;;;1.70;;
13349;SDS011;6744;53.190;6.576;2022-07-29T15:36:30;3.67;;;1.80;;
13349;SDS011;6744;53.190;6.576;2022-07-29T15:38:55;3.33;;;1.60;;